Time;durP1;ratioP1;P1;durP2;ratioP2;P2;SDS_P1;SDS_P2;PMS_P1;PMS_P2;Temp;Humidity;BMP_temperature;BMP_pressure;BME280_temperature;BME280_humidity;BME280_pressure;Samples;Min_cycle;Max_cycle;Signal;HPM_P1;HPM_P2
2022/11/11 00:00:16;;;;;;;15.52;8.68;;;7.30;99.90;;;;;;2053510;28;20505;-74
2022/11/11 00:01:36;;;;;;;15.43;8.50;;;7.30;99.90;;;;;;2053659;28;20637;-74
2022/11/11 00:02:56;;;;;;;14.88;8.43;;;7.30;99.90;;;;;;2056008;28;20563;-74
2022/11/11 00:04:15;;;;;;;13.48;8.10;;;7.30;99.90;;;;;;2055928;28;20034;-75
2022/11/11 00:05:34;;;;;;;12.38;7.95;;;7.30;99.90;;;;;;2055648;28;20030;-75
2022/11/11 00:06:53;;;;;;;11.93;8.50;;;7.30;99.90;;;;;;2055597;28;20023;-75
2022/11/11 00:08:12;;;;;;;14.50;8.15;;;7.30;99.90;;;;;;2055392;28;20050;-75
2022/11/11 00:09:31;;;;;;;13.50;8.23;;;7.30;99.90;;;;;;2054577;28;20019;-75
2022/11/11 00:10:50;;;;;;;12.98;8.63;;;7.30;99.90;;;;;;2054929;28;20043;-75
2022/11/11 00:12:09;;;;;;;12.52;8.20;;;7.30;99.90;;;;;;2055252;28;20741;-75
2022/11/11 00:13:30;;;;;;;14.45;8.50;;;7.30;99.90;;;;;;2055070;28;20047;-75
2022/11/11 00:14:49;;;;;;;12.18;7.65;;;7.30;99.90;;;;;;2054967;28;20038;-75
2022/11/11 00:16:13;;;;;;;12.82;7.93;;;7.30;99.90;;;;;;2052645;28;20569;-75
2022/11/11 00:26:01;;;;;;;15.25;9.80;;;7.20;99.90;;;;;;2053915;28;20038;-75
2022/11/11 00:27:20;;;;;;;16.92;9.57;;;7.20;99.90;;;;;;2053768;28;20030;-75
2022/11/11 00:28:40;;;;;;;17.17;9.77;;;7.20;99.90;;;;;;2053555;28;20069;-75
2022/11/11 00:29:59;;;;;;;16.55;10.60;;;7.20;99.90;;;;;;2053494;28;20377;-75
2022/11/11 00:31:18;;;;;;;14.93;9.45;;;7.20;99.90;;;;;;2053166;28;20489;-75
2022/11/11 00:32:37;;;;;;;13.85;9.32;;;7.10;99.90;;;;;;2053175;28;20031;-75
2022/11/11 00:33:56;;;;;;;14.80;9.52;;;7.20;99.90;;;;;;2055783;28;20433;-75
2022/11/11 00:36:53;;;;;;;15.10;9.38;;;7.20;99.90;;;;;;2055231;28;20043;-75
2022/11/11 00:38:44;;;;;;;16.23;9.23;;;7.10;99.90;;;;;;2055070;28;20033;-75
2022/11/11 00:39:52;;;;;;;16.08;9.10;;;7.10;99.90;;;;;;2055297;28;20552;-75
2022/11/11 00:41:20;;;;;;;14.90;8.82;;;7.10;99.90;;;;;;2054805;28;20624;-75
2022/11/11 00:42:40;;;;;;;13.65;8.35;;;7.10;99.90;;;;;;2053281;28;20491;-75
2022/11/11 00:43:59;;;;;;;13.98;8.48;;;7.10;99.90;;;;;;2053225;28;20026;-74
2022/11/11 00:45:19;;;;;;;14.10;8.52;;;7.10;99.90;;;;;;2053288;28;20045;-75
2022/11/11 00:51:48;;;;;;;13.35;8.80;;;7.00;99.90;;;;;;2054734;28;20034;-75
2022/11/11 00:53:13;;;;;;;13.25;8.38;;;7.00;99.90;;;;;;2054509;28;20109;-74
2022/11/11 00:54:33;;;;;;;14.82;8.38;;;6.90;99.90;;;;;;2055003;28;20030;-75
2022/11/11 00:55:53;;;;;;;13.75;8.82;;;6.90;99.90;;;;;;2055240;28;20062;-75
2022/11/11 00:57:12;;;;;;;13.68;8.88;;;7.00;99.90;;;;;;2055084;28;20055;-75
2022/11/11 00:58:31;;;;;;;15.10;8.63;;;6.90;99.90;;;;;;2054697;28;20034;-74
2022/11/11 00:59:50;;;;;;;14.50;8.30;;;6.90;99.90;;;;;;2054755;28;20517;-75
2022/11/11 01:01:09;;;;;;;14.35;8.80;;;6.90;99.90;;;;;;2054527;28;20042;-75
2022/11/11 01:02:29;;;;;;;12.30;8.50;;;6.90;99.90;;;;;;2054065;28;20039;-75
2022/11/11 01:03:48;;;;;;;14.85;8.60;;;6.90;99.90;;;;;;2054398;28;20035;-75
2022/11/11 01:05:07;;;;;;;12.52;8.63;;;6.90;99.90;;;;;;2054344;28;20031;-75
2022/11/11 01:06:27;;;;;;;12.48;8.25;;;6.90;99.90;;;;;;2053620;28;20046;-75
2022/11/11 01:07:49;;;;;;;13.25;8.48;;;6.90;99.90;;;;;;2053720;28;20019;-75
2022/11/11 01:09:08;;;;;;;12.75;8.73;;;6.90;99.90;;;;;;2054377;28;20035;-75
2022/11/11 01:10:43;;;;;;;15.88;9.27;;;6.80;99.90;;;;;;2054235;28;20405;-75
2022/11/11 01:12:02;;;;;;;15.63;8.75;;;6.80;99.90;;;;;;2053513;28;20023;-75
2022/11/11 01:13:25;;;;;;;13.57;9.20;;;6.80;99.90;;;;;;2053266;28;20031;-75
2022/11/11 01:14:44;;;;;;;15.30;9.38;;;6.80;99.90;;;;;;2052846;28;20070;-75
2022/11/11 01:16:06;;;;;;;13.98;8.55;;;6.80;99.90;;;;;;2053163;28;20042;-75
2022/11/11 01:17:25;;;;;;;14.23;8.10;;;6.80;99.90;;;;;;2053830;28;20039;-75
2022/11/11 01:18:44;;;;;;;13.18;8.82;;;6.80;99.90;;;;;;2053822;28;20027;-75
2022/11/11 01:20:04;;;;;;;14.38;8.82;;;6.80;99.90;;;;;;2053527;28;20043;-76
2022/11/11 01:21:24;;;;;;;15.13;9.10;;;6.80;99.90;;;;;;2052915;28;20616;-74
2022/11/11 01:22:43;;;;;;;14.02;9.10;;;6.80;99.90;;;;;;2053586;28;20034;-75
2022/11/11 01:24:03;;;;;;;14.52;9.23;;;6.70;99.90;;;;;;2053444;28;20405;-75
2022/11/11 01:25:22;;;;;;;15.60;8.80;;;6.70;99.90;;;;;;2053346;28;20026;-74
2022/11/11 01:26:41;;;;;;;14.15;8.43;;;6.70;99.90;;;;;;2053244;28;20059;-74
2022/11/11 01:28:00;;;;;;;14.32;8.55;;;6.70;99.90;;;;;;2052978;28;20043;-74
2022/11/11 01:29:20;;;;;;;13.63;8.93;;;6.70;99.90;;;;;;2053048;28;20026;-74
2022/11/11 01:30:39;;;;;;;12.90;8.30;;;6.70;99.90;;;;;;2052681;28;20762;-74
2022/11/11 01:31:58;;;;;;;12.60;7.95;;;6.70;99.90;;;;;;2055441;28;20023;-74
2022/11/11 01:33:17;;;;;;;13.10;8.38;;;6.70;99.90;;;;;;2055710;28;20428;-74
2022/11/11 01:34:36;;;;;;;13.95;8.00;;;6.70;99.90;;;;;;2055356;28;20593;-74
2022/11/11 01:36:00;;;;;;;12.32;8.05;;;6.70;99.90;;;;;;2054681;28;20620;-75
2022/11/11 01:37:20;;;;;;;11.75;8.00;;;6.70;99.90;;;;;;2053492;28;20066;-74
2022/11/11 01:38:41;;;;;;;12.35;8.07;;;6.60;99.90;;;;;;2052992;28;20050;-74
2022/11/11 01:40:01;;;;;;;16.83;8.27;;;6.60;99.90;;;;;;2053649;28;20472;-74
2022/11/11 01:41:31;;;;;;;14.32;8.25;;;6.70;99.90;;;;;;2053571;28;20046;-74
2022/11/11 01:42:53;;;;;;;15.80;8.50;;;6.70;99.90;;;;;;2048986;28;20072;-74
2022/11/11 01:44:18;;;;;;;14.13;8.07;;;6.70;99.90;;;;;;2055638;28;20035;-74
2022/11/11 01:45:57;;;;;;;14.55;7.90;;;6.70;99.90;;;;;;2055917;28;20023;-74
2022/11/11 01:47:18;;;;;;;13.48;8.18;;;6.70;99.90;;;;;;2055912;28;20443;-74
2022/11/11 01:50:23;;;;;;;15.45;8.20;;;6.60;99.90;;;;;;2053852;28;20039;-74
2022/11/11 01:52:10;;;;;;;12.93;7.82;;;6.60;99.90;;;;;;2053275;28;20054;-74
2022/11/11 01:53:29;;;;;;;13.35;7.72;;;6.60;99.90;;;;;;2055982;28;20050;-73
2022/11/11 01:54:53;;;;;;;14.65;8.02;;;6.60;99.90;;;;;;2054443;28;20030;-73
2022/11/11 01:56:12;;;;;;;13.13;7.65;;;6.60;99.90;;;;;;2055688;28;20078;-73
2022/11/11 01:57:37;;;;;;;12.98;7.90;;;6.60;99.90;;;;;;2055943;28;20476;-73
2022/11/11 01:59:02;;;;;;;11.15;7.18;;;6.60;99.90;;;;;;2055630;28;20051;-74
2022/11/11 02:00:21;;;;;;;11.95;7.53;;;6.50;99.90;;;;;;2050821;28;20062;-74
2022/11/11 02:01:40;;;;;;;12.80;7.65;;;6.50;99.90;;;;;;2053085;28;20034;-74
2022/11/11 02:03:06;;;;;;;15.40;8.15;;;6.50;99.90;;;;;;2052651;28;20047;-74
2022/11/11 02:06:05;;;;;;;11.43;7.40;;;6.50;99.90;;;;;;2053427;28;20050;-74
2022/11/11 02:07:25;;;;;;;12.70;7.45;;;6.40;99.90;;;;;;2053438;28;20114;-74
2022/11/11 02:08:45;;;;;;;10.52;6.95;;;6.40;99.90;;;;;;2053280;28;20042;-74
2022/11/11 02:10:07;;;;;;;12.38;7.57;;;6.40;99.90;;;;;;2053379;28;20023;-74
2022/11/11 02:14:54;;;;;;;13.55;7.72;;;6.40;99.90;;;;;;2054215;28;20042;-74
2022/11/11 02:16:13;;;;;;;14.00;7.70;;;6.40;99.90;;;;;;2054492;28;20474;-74
2022/11/11 02:17:33;;;;;;;12.07;7.30;;;6.50;99.90;;;;;;2054472;28;20043;-74
2022/11/11 02:18:53;;;;;;;12.02;7.30;;;6.50;99.90;;;;;;2054582;28;20105;-74
2022/11/11 02:20:15;;;;;;;12.13;7.28;;;6.50;99.90;;;;;;2055499;28;20074;-74
2022/11/11 02:21:44;;;;;;;12.38;7.47;;;6.40;99.90;;;;;;2054757;28;20027;-74
2022/11/11 02:23:14;;;;;;;11.18;7.18;;;6.40;99.90;;;;;;2053128;28;20043;-74
2022/11/11 02:24:34;;;;;;;10.65;7.63;;;6.40;99.90;;;;;;2054238;28;20023;-75
2022/11/11 02:25:55;;;;;;;10.30;6.97;;;6.40;99.90;;;;;;2054412;28;20035;-74
2022/11/11 02:27:16;;;;;;;12.20;7.25;;;6.40;99.90;;;;;;2054292;28;20031;-74
2022/11/11 02:28:36;;;;;;;10.07;7.03;;;6.50;99.90;;;;;;2054770;28;20079;-75
2022/11/11 02:29:59;;;;;;;11.88;7.05;;;6.40;99.90;;;;;;2054783;28;20481;-74
2022/11/11 02:31:18;;;;;;;11.32;7.35;;;6.40;99.90;;;;;;2054815;28;20039;-74
2022/11/11 02:32:37;;;;;;;11.70;7.40;;;6.40;99.90;;;;;;2054797;28;20034;-74
2022/11/11 02:33:57;;;;;;;12.63;7.20;;;6.40;99.90;;;;;;2056377;28;20034;-75
2022/11/11 02:35:29;;;;;;;12.20;6.90;;;6.40;99.90;;;;;;2056310;28;20062;-75
2022/11/11 02:36:48;;;;;;;10.93;7.20;;;6.40;99.90;;;;;;2055185;28;20523;-75
2022/11/11 02:38:10;;;;;;;11.13;7.15;;;6.40;99.90;;;;;;2056884;28;20022;-74
2022/11/11 02:39:32;;;;;;;12.30;7.15;;;6.40;99.90;;;;;;2055384;28;20047;-75
2022/11/11 02:42:30;;;;;;;12.75;7.45;;;6.40;99.90;;;;;;2055269;28;20034;-75
2022/11/11 02:43:49;;;;;;;11.02;7.47;;;6.40;99.90;;;;;;2055114;28;20066;-75
2022/11/11 02:45:09;;;;;;;10.43;7.13;;;6.40;99.90;;;;;;2055218;28;20038;-75
2022/11/11 02:46:28;;;;;;;12.50;7.45;;;6.40;99.90;;;;;;2055115;28;20418;-75
2022/11/11 02:47:47;;;;;;;13.05;7.47;;;6.40;99.90;;;;;;2054995;28;20038;-75
2022/11/11 02:49:06;;;;;;;11.98;7.32;;;6.40;99.90;;;;;;2054648;28;20039;-75
2022/11/11 02:50:25;;;;;;;10.95;7.00;;;6.40;99.90;;;;;;2054693;28;20023;-74
2022/11/11 02:51:45;;;;;;;9.93;7.20;;;6.40;99.90;;;;;;2054496;28;20137;-75
2022/11/11 02:53:04;;;;;;;10.23;7.00;;;6.40;99.90;;;;;;2054456;28;20027;-75
2022/11/11 02:54:23;;;;;;;12.07;7.50;;;6.40;99.90;;;;;;2054002;28;20066;-75
2022/11/11 02:55:42;;;;;;;12.90;7.43;;;6.40;99.90;;;;;;2054200;28;20448;-75
2022/11/11 02:57:08;;;;;;;11.50;7.45;;;6.40;99.90;;;;;;2053511;28;20038;-75
2022/11/11 02:58:27;;;;;;;12.80;7.93;;;6.40;99.90;;;;;;2054555;28;20014;-75
2022/11/11 02:59:47;;;;;;;11.82;7.95;;;6.40;99.90;;;;;;2054795;28;20030;-75
2022/11/11 03:01:06;;;;;;;15.15;8.05;;;6.40;99.90;;;;;;2054363;28;20122;-75
2022/11/11 03:02:27;;;;;;;15.30;8.35;;;6.40;99.90;;;;;;2054325;28;20474;-75
2022/11/11 03:03:46;;;;;;;12.60;8.00;;;6.40;99.90;;;;;;2054717;28;20102;-74
2022/11/11 03:05:06;;;;;;;13.23;8.20;;;6.40;99.90;;;;;;2054451;28;20118;-75
2022/11/11 03:06:25;;;;;;;15.15;8.48;;;6.40;99.90;;;;;;2054572;28;20030;-74
2022/11/11 03:07:45;;;;;;;14.43;8.27;;;6.40;99.90;;;;;;2054336;28;20062;-74
2022/11/11 03:09:04;;;;;;;16.98;8.88;;;6.40;99.90;;;;;;2054062;28;20373;-75
2022/11/11 03:10:23;;;;;;;12.20;8.00;;;6.40;99.90;;;;;;2056372;28;20702;-74
2022/11/11 03:11:42;;;;;;;12.77;8.55;;;6.40;99.90;;;;;;2054028;28;20039;-74
2022/11/11 03:13:01;;;;;;;14.43;8.40;;;6.40;99.90;;;;;;2056304;28;20038;-75
2022/11/11 03:14:20;;;;;;;12.25;7.53;;;6.40;99.90;;;;;;2056170;28;20039;-75
2022/11/11 03:15:40;;;;;;;13.13;7.93;;;6.40;99.90;;;;;;2056246;28;20038;-74
2022/11/11 03:18:38;;;;;;;14.70;7.65;;;6.40;99.90;;;;;;2055848;28;20035;-74
2022/11/11 03:21:03;;;;;;;12.82;7.30;;;6.40;99.90;;;;;;2055734;28;20030;-75
2022/11/11 03:21:36;;;;;;;13.32;7.50;;;6.40;99.90;;;;;;2055535;28;20071;-75
2022/11/11 03:23:14;;;;;;;16.02;9.02;;;6.40;99.90;;;;;;2055474;28;20058;-73
2022/11/11 03:26:12;;;;;;;13.90;8.85;;;6.40;99.90;;;;;;2055150;28;20027;-74
2022/11/11 03:27:31;;;;;;;16.23;9.00;;;6.40;99.90;;;;;;2054989;28;20031;-75
2022/11/11 03:28:51;;;;;;;14.82;8.13;;;6.40;99.90;;;;;;2055013;28;20027;-75
2022/11/11 03:30:10;;;;;;;14.23;8.77;;;6.40;99.90;;;;;;2054855;28;20062;-75
2022/11/11 03:31:30;;;;;;;15.27;8.80;;;6.30;99.90;;;;;;2055076;28;20082;-73
2022/11/11 03:32:49;;;;;;;17.55;8.52;;;6.30;99.90;;;;;;2054651;28;20031;-73
2022/11/11 03:34:17;;;;;;;13.73;8.20;;;6.30;99.90;;;;;;2054157;28;20058;-73
2022/11/11 03:35:36;;;;;;;13.00;8.60;;;6.30;99.90;;;;;;2055466;28;20412;-73
2022/11/11 03:38:34;;;;;;;17.02;8.57;;;6.20;99.90;;;;;;2055159;28;20038;-73
2022/11/11 03:39:53;;;;;;;16.58;8.15;;;6.20;99.90;;;;;;2055252;28;20030;-73
2022/11/11 03:41:14;;;;;;;15.98;8.18;;;6.20;99.90;;;;;;2052244;28;20436;-73
2022/11/11 03:42:33;;;;;;;14.73;8.35;;;6.20;99.90;;;;;;2055182;28;20035;-74
2022/11/11 03:43:52;;;;;;;14.90;8.48;;;6.20;99.90;;;;;;2054885;28;20058;-73
2022/11/11 03:45:12;;;;;;;12.27;8.07;;;6.10;99.90;;;;;;2055921;28;20043;-73
2022/11/11 03:46:31;;;;;;;12.80;7.90;;;6.10;99.90;;;;;;2058281;28;20034;-73
2022/11/11 03:47:50;;;;;;;14.57;8.45;;;6.10;99.90;;;;;;2054371;28;20031;-74
2022/11/11 03:49:09;;;;;;;14.98;8.45;;;6.10;99.90;;;;;;2057462;28;20023;-74
2022/11/11 03:50:29;;;;;;;13.43;8.27;;;6.10;99.90;;;;;;2050702;28;20118;-74
2022/11/11 03:51:48;;;;;;;15.20;8.40;;;6.00;99.90;;;;;;2050519;29;20402;-73
2022/11/11 03:53:07;;;;;;;16.17;8.48;;;6.00;99.90;;;;;;2054439;28;20031;-74
2022/11/11 03:54:26;;;;;;;14.25;7.68;;;6.00;99.90;;;;;;2055165;28;20035;-72
2022/11/11 03:55:46;;;;;;;14.90;8.93;;;6.00;99.90;;;;;;2058252;28;20038;-72
2022/11/11 03:58:43;;;;;;;14.60;8.98;;;6.00;99.90;;;;;;2056391;28;20031;-72
2022/11/11 04:00:03;;;;;;;17.00;9.27;;;6.00;99.90;;;;;;2058511;28;20023;-73
2022/11/11 04:11:26;;;;;;;16.80;9.10;;;5.90;99.90;;;;;;2054929;28;20047;-74
2022/11/11 04:16:07;;;;;;;12.32;8.50;;;5.90;99.90;;;;;;2055702;28;20030;-74
2022/11/11 04:17:26;;;;;;;16.27;8.75;;;6.00;99.90;;;;;;2056099;28;20485;-74
2022/11/11 04:22:01;;;;;;;14.48;9.05;;;6.00;99.90;;;;;;2056054;28;20042;-74
2022/11/11 04:23:20;;;;;;;13.02;9.02;;;5.90;99.90;;;;;;2056016;28;20054;-74
2022/11/11 04:26:17;;;;;;;13.70;8.45;;;5.90;99.90;;;;;;2056246;28;20118;-74
2022/11/11 04:27:36;;;;;;;16.05;9.23;;;5.90;99.90;;;;;;2056065;28;20447;-73
2022/11/11 04:30:34;;;;;;;14.43;8.50;;;5.90;99.90;;;;;;2055769;28;20023;-74
2022/11/11 04:33:35;;;;;;;14.40;8.88;;;5.90;99.90;;;;;;2055954;28;20070;-75
2022/11/11 04:34:59;;;;;;;12.10;8.65;;;5.90;99.90;;;;;;2055850;28;20035;-74
2022/11/11 04:36:19;;;;;;;13.95;9.07;;;5.90;99.90;;;;;;2055953;28;20042;-74
2022/11/11 04:37:48;;;;;;;16.48;8.80;;;5.90;99.90;;;;;;2056045;28;20046;-75
2022/11/11 04:41:03;;;;;;;14.60;9.07;;;5.90;99.90;;;;;;2055829;28;20412;-75
2022/11/11 04:42:23;;;;;;;14.43;8.73;;;5.90;99.90;;;;;;2056069;28;20042;-75
2022/11/11 04:45:34;;;;;;;14.23;9.00;;;5.90;99.90;;;;;;2056252;28;20245;-75
2022/11/11 04:46:54;;;;;;;13.38;8.75;;;5.90;99.90;;;;;;2055368;28;20557;-75
2022/11/11 04:48:15;;;;;;;13.35;8.63;;;5.90;99.90;;;;;;2055765;28;20034;-75
2022/11/11 04:49:34;;;;;;;14.27;9.00;;;5.90;99.90;;;;;;2055332;28;20035;-74
2022/11/11 04:50:54;;;;;;;14.27;9.40;;;5.90;99.90;;;;;;2055269;28;20038;-75
2022/11/11 04:52:25;;;;;;;13.55;8.82;;;5.90;99.90;;;;;;2055750;28;20039;-74
2022/11/11 04:53:44;;;;;;;15.30;8.70;;;5.90;99.90;;;;;;2055845;28;20483;-74
2022/11/11 04:56:49;;;;;;;15.13;8.85;;;5.90;99.90;;;;;;2055500;28;20047;-74
2022/11/11 04:58:09;;;;;;;12.88;8.98;;;5.90;99.90;;;;;;2055867;28;20039;-74
2022/11/11 04:59:28;;;;;;;15.85;9.00;;;5.90;99.90;;;;;;2055788;28;20043;-74
2022/11/11 05:00:47;;;;;;;17.58;10.05;;;5.90;99.90;;;;;;2055422;28;20043;-74
2022/11/11 05:03:44;;;;;;;16.15;9.63;;;6.00;99.90;;;;;;2055720;28;20142;-74
2022/11/11 05:05:04;;;;;;;14.35;9.20;;;6.00;99.90;;;;;;2055876;28;20106;-74
2022/11/11 05:09:41;;;;;;;15.57;9.57;;;6.10;99.90;;;;;;2055752;28;20449;-74
2022/11/11 05:11:00;;;;;;;14.75;9.30;;;6.10;99.90;;;;;;2055513;28;20031;-74
2022/11/11 05:12:19;;;;;;;15.68;9.38;;;6.10;99.90;;;;;;2055532;28;20043;-74
2022/11/11 05:21:54;;;;;;;15.63;9.57;;;6.10;99.90;;;;;;2054301;28;20039;-74
2022/11/11 05:23:14;;;;;;;13.75;9.70;;;6.10;99.90;;;;;;2055299;28;20058;-73
2022/11/11 05:26:11;;;;;;;15.60;9.75;;;6.10;99.90;;;;;;2055564;28;20516;-73
2022/11/11 05:27:31;;;;;;;15.27;10.10;;;6.10;99.90;;;;;;2054985;28;20031;-73
2022/11/11 05:28:50;;;;;;;16.17;10.00;;;6.10;99.90;;;;;;2055218;28;20063;-73
2022/11/11 05:30:11;;;;;;;15.80;10.13;;;6.00;99.90;;;;;;2055581;28;20030;-72
2022/11/11 05:31:31;;;;;;;16.17;9.43;;;6.00;99.90;;;;;;2055527;28;20126;-73
2022/11/11 05:32:50;;;;;;;15.77;9.60;;;6.00;99.90;;;;;;2055613;28;20034;-72
2022/11/11 05:34:10;;;;;;;16.65;9.98;;;5.90;99.90;;;;;;2055560;28;20039;-72
2022/11/11 05:35:29;;;;;;;16.70;10.43;;;6.00;99.90;;;;;;2055711;28;20042;-73
2022/11/11 05:36:48;;;;;;;16.10;10.63;;;5.90;99.90;;;;;;2055516;28;20061;-72
2022/11/11 05:38:19;;;;;;;19.00;10.85;;;5.90;99.90;;;;;;2055165;28;20046;-72
2022/11/11 05:39:38;;;;;;;19.33;10.57;;;6.00;99.90;;;;;;2055947;28;20662;-72
2022/11/11 05:40:58;;;;;;;20.17;10.32;;;6.00;99.90;;;;;;2055096;28;20039;-75
2022/11/11 05:42:17;;;;;;;18.23;10.43;;;6.00;99.90;;;;;;2055674;28;20026;-75
2022/11/11 05:43:37;;;;;;;15.95;10.00;;;6.00;99.90;;;;;;2055502;28;20043;-75
2022/11/11 05:44:56;;;;;;;21.45;10.90;;;6.10;99.90;;;;;;2055795;28;20030;-75
2022/11/11 05:46:16;;;;;;;20.67;11.15;;;6.10;99.90;;;;;;2056257;28;20035;-75
2022/11/11 05:47:35;;;;;;;17.33;10.32;;;6.10;99.90;;;;;;2055894;28;20031;-75
2022/11/11 05:50:33;;;;;;;16.58;10.05;;;6.10;99.90;;;;;;2055808;28;20026;-75
2022/11/11 05:51:54;;;;;;;18.35;11.48;;;6.10;99.90;;;;;;2055846;28;20030;-75
2022/11/11 05:53:22;;;;;;;19.55;11.57;;;6.10;99.90;;;;;;2055659;28;20030;-75
2022/11/11 05:54:42;;;;;;;18.58;11.13;;;6.10;99.90;;;;;;2055718;28;20058;-76
2022/11/11 05:56:01;;;;;;;18.52;11.73;;;6.10;99.90;;;;;;2055910;28;20030;-75
2022/11/11 05:57:20;;;;;;;27.73;18.48;;;6.10;99.90;;;;;;2055724;28;20118;-75
2022/11/11 05:58:40;;;;;;;24.38;16.52;;;6.10;99.90;;;;;;2055990;28;20055;-75
2022/11/11 05:59:59;;;;;;;24.70;14.55;;;6.10;99.90;;;;;;2056942;28;20047;-75
2022/11/11 06:01:18;;;;;;;18.45;12.93;;;6.20;99.90;;;;;;2048530;29;20130;-75
2022/11/11 06:02:38;;;;;;;21.67;13.30;;;6.20;99.90;;;;;;2049113;29;20402;-75
2022/11/11 06:03:57;;;;;;;17.77;12.00;;;6.20;99.90;;;;;;2049015;29;20047;-75
2022/11/11 06:05:16;;;;;;;19.05;10.98;;;6.20;99.90;;;;;;2049370;29;20035;-75
2022/11/11 06:06:36;;;;;;;17.45;10.95;;;6.20;99.90;;;;;;2049541;29;20530;-75
2022/11/11 06:07:55;;;;;;;19.48;11.50;;;6.20;99.90;;;;;;2049678;29;20490;-74
2022/11/11 06:09:14;;;;;;;17.30;10.73;;;6.20;99.90;;;;;;2050909;29;20031;-75
2022/11/11 06:10:33;;;;;;;15.07;10.88;;;6.20;99.90;;;;;;2053952;28;20027;-75
2022/11/11 06:11:52;;;;;;;16.77;10.57;;;6.10;99.90;;;;;;2057552;28;20634;-75
2022/11/11 06:13:13;;;;;;;18.20;10.77;;;6.10;99.90;;;;;;2057883;28;20023;-75
2022/11/11 06:14:32;;;;;;;18.95;11.02;;;6.10;99.90;;;;;;2058673;28;20039;-75
2022/11/11 06:15:54;;;;;;;18.33;11.00;;;6.20;99.90;;;;;;2058101;28;20654;-75
2022/11/11 06:17:14;;;;;;;19.60;10.68;;;6.10;99.90;;;;;;2071645;23;20026;-70
2022/11/11 06:18:34;;;;;;;20.23;11.70;;;6.20;99.90;;;;;;2041413;29;20107;-71
2022/11/11 06:19:53;;;;;;;16.27;10.52;;;6.20;99.90;;;;;;2041615;29;20044;-72
2022/11/11 06:21:12;;;;;;;19.58;12.07;;;6.10;99.90;;;;;;2040771;29;20067;-71
2022/11/11 06:24:11;;;;;;;20.35;12.20;;;6.20;99.90;;;;;;2039151;29;20035;-70
2022/11/11 06:27:10;;;;;;;18.65;12.15;;;6.10;99.90;;;;;;2042189;29;20028;-71
2022/11/11 06:28:29;;;;;;;20.70;12.55;;;6.10;99.90;;;;;;2041382;29;20027;-71
2022/11/11 06:29:48;;;;;;;21.88;12.38;;;6.10;99.90;;;;;;2041574;29;20027;-72
2022/11/11 06:31:09;;;;;;;21.95;12.90;;;6.10;99.90;;;;;;2041582;29;20048;-71
2022/11/11 06:32:28;;;;;;;21.65;13.60;;;6.10;99.90;;;;;;2041433;29;20111;-70
2022/11/11 06:33:48;;;;;;;24.75;14.02;;;6.10;99.90;;;;;;2041524;29;20158;-69
2022/11/11 06:35:07;;;;;;;26.48;15.23;;;6.10;99.90;;;;;;2041926;29;20063;-71
2022/11/11 06:36:27;;;;;;;24.73;15.23;;;6.10;99.90;;;;;;2041829;29;20047;-69
2022/11/11 06:37:46;;;;;;;26.95;15.50;;;6.10;99.90;;;;;;2042191;29;20462;-68
2022/11/11 06:39:05;;;;;;;23.42;14.35;;;6.20;99.90;;;;;;2042780;29;20441;-68
2022/11/11 06:40:24;;;;;;;26.85;14.27;;;6.20;99.90;;;;;;2053194;29;20027;-68
2022/11/11 06:41:44;;;;;;;25.42;13.73;;;6.20;99.90;;;;;;2047623;29;20047;-72
2022/11/11 06:43:03;;;;;;;21.30;13.35;;;6.20;99.90;;;;;;2041315;29;20047;-71
2022/11/11 06:44:22;;;;;;;22.90;13.70;;;6.20;99.90;;;;;;2041682;29;20410;-71
2022/11/11 06:45:41;;;;;;;23.30;13.40;;;6.30;99.90;;;;;;2041279;29;20102;-69
2022/11/11 06:47:00;;;;;;;22.30;13.10;;;6.30;99.90;;;;;;2041315;29;20028;-68
2022/11/11 06:48:20;;;;;;;24.65;14.10;;;6.30;99.90;;;;;;2041005;29;20047;-72
2022/11/11 06:49:40;;;;;;;26.15;14.35;;;6.20;99.90;;;;;;2041340;29;20060;-69
2022/11/11 06:51:02;;;;;;;21.88;13.68;;;6.30;99.90;;;;;;2041097;29;20039;-69
2022/11/11 06:52:21;;;;;;;30.40;16.20;;;6.30;99.90;;;;;;2040650;29;20110;-70
2022/11/11 06:53:41;;;;;;;27.15;14.68;;;6.30;99.90;;;;;;2041176;29;20102;-71
2022/11/11 06:55:01;;;;;;;25.75;14.82;;;6.30;99.90;;;;;;2041373;29;20047;-71
2022/11/11 06:56:20;;;;;;;23.58;13.50;;;6.40;99.90;;;;;;2041390;29;20036;-71
2022/11/11 06:57:39;;;;;;;20.90;13.50;;;6.40;99.90;;;;;;2041159;29;20028;-69
2022/11/11 06:58:58;;;;;;;22.73;13.27;;;6.40;99.90;;;;;;2041586;29;20048;-71
2022/11/11 07:00:18;;;;;;;22.42;13.32;;;6.50;99.90;;;;;;2041107;29;20661;-70
2022/11/11 07:01:37;;;;;;;21.37;13.20;;;6.50;99.90;;;;;;2041263;29;20035;-69
2022/11/11 07:02:56;;;;;;;21.45;13.20;;;6.50;99.90;;;;;;2040679;29;20272;-70
2022/11/11 07:04:15;;;;;;;21.95;13.75;;;6.50;99.90;;;;;;2040845;29;20035;-71
2022/11/11 07:05:34;;;;;;;20.98;13.20;;;6.60;99.90;;;;;;2040433;29;20031;-71
2022/11/11 07:06:53;;;;;;;26.52;14.23;;;6.60;99.90;;;;;;2045563;29;20056;-72
2022/11/11 07:08:17;;;;;;;21.77;14.30;;;6.70;99.90;;;;;;2044043;29;20036;-70
2022/11/11 07:09:37;;;;;;;21.85;14.23;;;6.70;99.90;;;;;;2041057;29;20032;-69
2022/11/11 07:10:56;;;;;;;24.38;13.55;;;6.80;99.90;;;;;;2040184;29;20070;-71
2022/11/11 07:12:16;;;;;;;24.38;14.05;;;6.80;99.90;;;;;;2041173;29;20035;-69
2022/11/11 07:13:35;;;;;;;26.63;14.02;;;6.90;99.90;;;;;;2040296;29;20047;-72
2022/11/11 07:14:54;;;;;;;25.35;13.90;;;6.80;99.90;;;;;;2040834;29;20595;-71
2022/11/11 07:16:13;;;;;;;24.05;13.57;;;6.90;99.90;;;;;;2041215;29;20067;-70
2022/11/11 07:17:32;;;;;;;26.58;14.50;;;6.90;99.90;;;;;;2040960;29;20027;-69
2022/11/11 07:18:52;;;;;;;25.95;14.23;;;7.00;99.90;;;;;;2039573;29;20130;-70
2022/11/11 07:20:12;;;;;;;27.20;13.95;;;7.00;99.90;;;;;;2040651;29;20024;-73
2022/11/11 07:21:32;;;;;;;25.40;13.95;;;7.10;99.90;;;;;;2040713;29;20040;-69
2022/11/11 07:22:51;;;;;;;22.65;13.93;;;7.10;99.90;;;;;;2040176;29;20031;-69
2022/11/11 07:24:10;;;;;;;22.58;13.23;;;7.10;99.90;;;;;;2040386;29;20044;-71
2022/11/11 07:25:30;;;;;;;21.08;12.75;;;7.20;99.90;;;;;;2041044;29;20031;-70
2022/11/11 07:26:49;;;;;;;22.67;13.43;;;7.20;99.90;;;;;;2040146;29;20036;-72
2022/11/11 07:28:09;;;;;;;21.10;13.10;;;7.30;99.90;;;;;;2040662;29;20123;-70
2022/11/11 07:29:28;;;;;;;21.90;12.70;;;7.40;99.90;;;;;;2040711;29;20071;-71
2022/11/11 07:30:47;;;;;;;21.13;13.15;;;7.40;99.90;;;;;;2039900;29;20060;-72
2022/11/11 07:32:07;;;;;;;21.23;12.70;;;7.40;99.90;;;;;;2039777;29;20036;-71
2022/11/11 07:33:26;;;;;;;22.02;12.25;;;7.50;99.90;;;;;;2040372;29;20114;-70
2022/11/11 07:34:46;;;;;;;22.90;12.80;;;7.50;99.90;;;;;;2041585;29;20047;-70
2022/11/11 07:36:05;;;;;;;20.10;12.15;;;7.60;99.90;;;;;;2041452;29;20035;-71
2022/11/11 07:37:25;;;;;;;20.75;12.13;;;7.60;99.90;;;;;;2040851;29;20675;-71
2022/11/11 07:38:44;;;;;;;17.95;11.88;;;7.60;99.90;;;;;;2040788;29;20048;-71
2022/11/11 07:40:04;;;;;;;19.27;12.48;;;7.70;99.90;;;;;;2041129;29;20082;-70
2022/11/11 07:41:23;;;;;;;20.65;12.52;;;7.70;99.90;;;;;;2041578;29;20047;-71
2022/11/11 07:42:43;;;;;;;19.35;11.88;;;7.70;99.90;;;;;;2041439;29;20031;-72
2022/11/11 07:44:03;;;;;;;19.17;11.52;;;7.70;99.90;;;;;;2041067;29;20043;-71
2022/11/11 07:45:22;;;;;;;16.77;11.40;;;7.80;99.90;;;;;;2040475;29;20084;-71
2022/11/11 07:46:42;;;;;;;18.10;11.38;;;7.80;99.90;;;;;;2041785;29;20510;-71
2022/11/11 07:48:01;;;;;;;19.45;11.68;;;7.90;99.90;;;;;;2042388;29;20102;-71
2022/11/11 07:49:20;;;;;;;17.95;11.50;;;7.90;99.90;;;;;;2048466;29;20047;-70
2022/11/11 07:50:39;;;;;;;17.25;11.57;;;8.00;99.90;;;;;;2045956;29;20040;-72
2022/11/11 07:51:58;;;;;;;18.42;12.13;;;8.10;99.90;;;;;;2042364;29;20036;-70
2022/11/11 07:53:18;;;;;;;19.27;12.30;;;8.10;99.90;;;;;;2048917;29;20035;-70
2022/11/11 07:54:37;;;;;;;27.73;14.13;;;8.10;99.90;;;;;;2045064;29;20043;-74
2022/11/11 07:55:56;;;;;;;23.27;13.40;;;8.20;99.90;;;;;;2042274;29;20027;-72
2022/11/11 07:57:16;;;;;;;21.98;12.77;;;8.20;99.90;;;;;;2040618;29;20043;-73
2022/11/11 07:58:35;;;;;;;23.55;13.23;;;8.20;99.90;;;;;;2045615;29;20027;-69
2022/11/11 07:59:55;;;;;;;21.75;12.60;;;8.30;99.90;;;;;;2044024;29;20043;-72
2022/11/11 08:01:14;;;;;;;19.60;11.20;;;8.30;99.90;;;;;;2040319;29;20035;-71
2022/11/11 08:02:33;;;;;;;19.55;11.73;;;8.30;99.90;;;;;;2040545;29;20031;-72
2022/11/11 08:03:52;;;;;;;18.65;11.80;;;8.30;99.90;;;;;;2041040;29;20684;-72
2022/11/11 08:05:12;;;;;;;17.33;11.23;;;8.40;99.90;;;;;;2040443;29;20071;-71
2022/11/11 08:06:31;;;;;;;17.80;11.60;;;8.40;99.90;;;;;;2041075;29;20044;-71
2022/11/11 08:07:50;;;;;;;18.08;11.80;;;8.40;99.90;;;;;;2040732;29;20028;-70
2022/11/11 08:09:10;;;;;;;20.40;11.98;;;8.50;99.90;;;;;;2040915;29;20048;-73
2022/11/11 08:10:29;;;;;;;21.23;12.45;;;8.50;99.90;;;;;;2040312;29;20481;-73
2022/11/11 08:13:43;;;;;;;17.33;11.85;;;8.50;99.90;;;;;;2040333;29;20119;-72
2022/11/11 08:15:03;;;;;;;16.90;11.98;;;8.50;99.90;;;;;;2040205;29;20122;-73